Time;durP1;ratioP1;P1;durP2;ratioP2;P2;SDS_P1;SDS_P2;PMS_P1;PMS_P2;Temp;Humidity;BMP_temperature;BMP_pressure;BME280_temperature;BME280_humidity;BME280_pressure;Samples;Min_cycle;Max_cycle;Signal;HPM_P1;HPM_P2
2022/01/31 00:00:51;;;;;;;11.65;4.03;;;;;;;1.76;74.08;98354.68;1778674;81;20979;-42
2022/01/31 00:03:17;;;;;;;24.63;5.17;;;;;;;1.76;74.08;98354.68;1778376;81;21007;-41
2022/01/31 00:05:43;;;;;;;19.87;5.47;;;;;;;1.73;74.26;98353.05;1778585;81;21531;-42
2022/01/31 00:08:09;;;;;;;22.58;4.70;;;;;;;1.63;74.73;98361.20;1778718;81;20979;-42
2022/01/31 00:10:35;;;;;;;14.47;4.20;;;;;;;1.69;74.52;98366.16;1778683;80;20979;-40
2022/01/31 00:13:11;;;;;;;23.27;6.20;;;;;;;1.71;74.96;98361.77;1778627;81;21006;-41
2022/01/31 00:15:39;;;;;;;17.57;4.80;;;;;;;1.80;74.57;98371.84;1778081;81;21062;-41
2022/01/31 00:18:02;;;;;;;23.50;6.80;;;;;;;1.72;74.30;98388.09;1777920;81;20983;-41
2022/01/31 00:20:28;;;;;;;28.38;5.33;;;;;;;1.76;74.29;98383.66;1778671;80;20983;-40
2022/01/31 00:22:54;;;;;;;24.18;6.17;;;;;;;1.73;74.16;98401.01;1778673;81;21491;-40
2022/01/31 00:25:20;;;;;;;27.45;6.92;;;;;;;1.72;74.51;98381.61;1778564;81;20951;-41
2022/01/31 00:27:47;;;;;;;19.40;6.05;;;;;;;1.71;74.68;98373.42;1778600;81;20975;-40
2022/01/31 00:30:14;;;;;;;36.93;10.95;;;;;;;1.69;74.42;98379.11;1778787;80;20979;-41
2022/01/31 00:32:40;;;;;;;34.85;10.38;;;;;;;1.73;74.46;98388.50;1778848;81;21492;-40
2022/01/31 00:35:06;;;;;;;35.00;10.32;;;;;;;1.58;74.32;98369.11;1778733;80;21480;-40
2022/01/31 00:37:32;;;;;;;19.42;5.85;;;;;;;1.65;74.60;98378.83;1778888;81;20959;-40
2022/01/31 00:39:58;;;;;;;17.98;5.40;;;;;;;1.62;74.76;98372.02;1778542;81;20979;-41
2022/01/31 00:42:26;;;;;;;21.97;5.65;;;;;;;1.61;74.95;98378.55;1778707;80;21517;-40
2022/01/31 00:44:55;;;;;;;19.75;3.85;;;;;;;1.58;74.91;98380.77;1778674;81;20967;-40
2022/01/31 00:47:24;;;;;;;10.25;4.10;;;;;;;1.53;74.98;98387.42;1778198;81;21460;-41
2022/01/31 00:49:54;;;;;;;14.30;3.58;;;;;;;1.56;74.95;98381.73;1778190;81;20935;-40
2022/01/31 00:52:18;;;;;;;23.40;5.12;;;;;;;1.61;75.08;98366.88;1778014;81;20948;-40
2022/01/31 00:54:46;;;;;;;14.47;5.42;;;;;;;1.47;74.91;98381.12;1778585;81;20991;-41
2022/01/31 00:57:13;;;;;;;16.27;4.00;;;;;;;1.44;75.01;98373.48;1778610;81;21461;-40
2022/01/31 00:59:38;;;;;;;18.25;3.87;;;;;;;1.44;75.16;98381.25;1778653;80;20995;-42
2022/01/31 01:02:04;;;;;;;11.30;3.87;;;;;;;1.46;74.92;98370.38;1778601;81;20995;-40
2022/01/31 01:04:30;;;;;;;16.12;4.12;;;;;;;1.48;74.78;98383.30;1778563;81;21011;-40
2022/01/31 01:06:57;;;;;;;18.67;4.22;;;;;;;1.49;74.85;98375.90;1780432;80;21007;-40
2022/01/31 01:09:22;;;;;;;16.77;3.25;;;;;;;1.41;74.86;98380.05;1781867;80;21035;-40
2022/01/31 01:11:48;;;;;;;16.35;3.42;;;;;;;1.38;75.03;98394.38;1781714;80;21472;-41
2022/01/31 01:14:14;;;;;;;17.65;3.37;;;;;;;1.26;75.12;98372.78;1781668;80;21464;-41
2022/01/31 01:16:40;;;;;;;14.65;3.22;;;;;;;1.34;74.93;98379.84;1781660;80;21167;-42
2022/01/31 01:19:06;;;;;;;12.60;3.45;;;;;;;1.31;74.78;98370.44;1781742;80;20948;-41
2022/01/31 01:21:32;;;;;;;19.32;3.75;;;;;;;1.30;75.24;98378.26;1781699;80;21831;-41
2022/01/31 01:23:57;;;;;;;13.53;3.50;;;;;;;1.31;75.01;98371.73;1781719;80;20976;-40
2022/01/31 01:26:23;;;;;;;13.18;3.95;;;;;;;1.33;74.87;98374.28;1781596;80;20974;-39
2022/01/31 01:28:49;;;;;;;14.03;2.90;;;;;;;1.30;74.93;98377.80;1781654;80;20986;-40
2022/01/31 01:31:15;;;;;;;18.25;3.65;;;;;;;1.27;75.05;98371.41;1781646;80;21433;-39
2022/01/31 01:33:41;;;;;;;20.85;3.12;;;;;;;1.22;75.13;98365.56;1781609;80;20975;-40
2022/01/31 01:36:08;;;;;;;15.45;3.30;;;;;;;1.18;75.36;98353.59;1781709;80;21558;-40
2022/01/31 01:38:34;;;;;;;11.78;2.75;;;;;;;1.20;75.44;98370.37;1781706;80;21034;-39
2022/01/31 01:41:01;;;;;;;17.77;3.95;;;;;;;1.10;75.45;98363.36;1781775;80;20963;-38
2022/01/31 01:43:30;;;;;;;18.75;2.77;;;;;;;1.17;75.31;98351.07;1781610;80;20975;-40
2022/01/31 01:45:57;;;;;;;15.25;3.70;;;;;;;1.08;75.65;98340.10;1781579;80;21455;-40
2022/01/31 01:48:26;;;;;;;17.12;2.98;;;;;;;1.07;75.74;98339.69;1781729;80;21062;-39
2022/01/31 01:50:52;;;;;;;13.53;2.75;;;;;;;1.02;75.43;98348.08;1781534;80;21942;-40
2022/01/31 01:53:18;;;;;;;14.98;3.10;;;;;;;1.02;75.86;98353.25;1781855;80;20989;-39
2022/01/31 01:55:51;;;;;;;15.50;3.25;;;;;;;1.06;75.64;98341.05;1781600;80;21014;-40
2022/01/31 01:58:17;;;;;;;17.02;2.62;;;;;;;1.04;75.89;98328.61;1780357;80;20998;-40
2022/01/31 02:00:50;;;;;;;16.07;3.45;;;;;;;0.99;76.07;98324.86;1780821;80;20949;-40
2022/01/31 02:03:18;;;;;;;13.22;3.35;;;;;;;0.97;76.12;98322.77;1781550;80;20990;-40
2022/01/31 02:05:44;;;;;;;20.65;3.08;;;;;;;0.89;76.37;98327.33;1781263;80;21046;-40
2022/01/31 02:08:13;;;;;;;14.90;3.50;;;;;;;0.89;76.33;98322.16;1778637;81;21433;-40
2022/01/31 02:10:40;;;;;;;15.95;4.22;;;;;;;0.79;76.65;98314.30;1778564;81;21487;-40
2022/01/31 02:13:08;;;;;;;14.63;3.77;;;;;;;0.83;76.51;98315.89;1778796;80;20959;-40
2022/01/31 02:15:35;;;;;;;20.08;4.70;;;;;;;0.79;76.93;98320.77;1778538;81;21464;-41
2022/01/31 02:18:03;;;;;;;18.30;5.78;;;;;;;0.84;76.46;98316.30;1778666;81;20987;-41
2022/01/31 02:20:29;;;;;;;22.42;5.87;;;;;;;0.80;76.51;98317.27;1778542;81;21488;-40
2022/01/31 02:22:57;;;;;;;14.03;4.80;;;;;;;0.73;76.89;98315.34;1778592;80;20987;-41
2022/01/31 02:25:22;;;;;;;;;;;;;;;0.69;77.11;98317.18;1781173;80;21031;-39
2022/01/31 02:27:48;;;;;;;13.00;2.90;;;;;;;0.66;77.19;98331.49;1778583;81;20148;-41
2022/01/31 02:30:17;;;;;;;15.45;3.02;;;;;;;0.66;77.25;98331.49;1778512;80;20960;-39
2022/01/31 02:32:44;;;;;;;14.87;3.55;;;;;;;0.68;77.45;98317.22;1778662;80;20979;-42
2022/01/31 02:35:13;;;;;;;9.65;3.12;;;;;;;0.70;77.31;98321.44;1778664;81;21559;-41
2022/01/31 02:37:40;;;;;;;13.95;3.35;;;;;;;0.68;77.74;98318.06;1778622;81;20984;-40
2022/01/31 02:43:01;;;;;;;12.50;2.87;;;;;;;0.70;77.48;98325.78;1696741;78;21181;-40
2022/01/31 02:45:27;;;;;;;19.73;3.52;;;;;;;0.71;77.53;98317.98;1696624;84;20977;-40
2022/01/31 02:47:57;;;;;;;17.02;3.02;;;;;;;0.75;77.69;98322.16;1696270;84;21074;-41
2022/01/31 02:50:21;;;;;;;;;;;;;;;0.66;77.92;98314.67;1698972;84;21020;-41
2022/01/31 02:52:56;;;;;;;15.18;3.17;;;;;;;0.64;78.11;98329.41;1696645;84;20143;-42
2022/01/31 02:55:17;;;;;;;11.48;2.80;;;;;;;0.68;78.14;98331.00;1695499;84;21087;-42
2022/01/31 02:57:43;;;;;;;12.65;3.27;;;;;;;0.55;78.30;98329.23;1696817;84;21020;-40
2022/01/31 03:00:12;;;;;;;14.18;3.12;;;;;;;0.68;78.46;98329.70;1696564;84;21069;-40
2022/01/31 03:02:38;;;;;;;11.75;3.17;;;;;;;0.65;78.29;98334.96;1696549;84;21052;-41
2022/01/31 03:05:04;;;;;;;15.13;2.80;;;;;;;0.72;78.36;98331.75;1696639;84;21513;-40
2022/01/31 03:07:30;;;;;;;16.65;3.20;;;;;;;0.72;78.05;98329.16;1696457;83;21040;-40
2022/01/31 03:09:56;;;;;;;17.82;3.27;;;;;;;0.63;78.44;98341.09;1696657;83;21025;-40
2022/01/31 03:12:22;;;;;;;15.30;2.90;;;;;;;0.60;78.64;98336.87;1696654;84;21473;-40
2022/01/31 03:14:49;;;;;;;13.80;3.37;;;;;;;0.62;78.72;98337.66;1696702;83;21056;-41
2022/01/31 03:17:15;;;;;;;17.90;3.52;;;;;;;0.56;78.92;98336.11;1696754;83;21206;-41
2022/01/31 03:19:42;;;;;;;17.45;3.00;;;;;;;0.69;78.87;98335.30;1696653;84;21052;-40
2022/01/31 03:22:09;;;;;;;15.58;3.35;;;;;;;0.71;78.53;98328.33;1696779;84;21036;-41
2022/01/31 03:24:35;;;;;;;18.07;3.80;;;;;;;0.66;78.70;98329.36;1696845;83;20988;-40
2022/01/31 03:27:01;;;;;;;20.00;3.37;;;;;;;0.70;78.60;98321.44;1696560;83;21024;-40
2022/01/31 03:29:28;;;;;;;12.53;2.83;;;;;;;0.63;78.75;98305.70;1696636;84;21004;-40
2022/01/31 03:31:54;;;;;;;13.15;3.47;;;;;;;0.70;78.52;98314.97;1696897;84;21028;-41
2022/01/31 03:34:20;;;;;;;10.25;3.33;;;;;;;0.64;78.41;98312.59;1696831;84;21067;-41
2022/01/31 03:36:46;;;;;;;11.18;2.55;;;;;;;0.67;78.59;98296.95;1696814;83;21497;-41
2022/01/31 03:39:12;;;;;;;17.45;2.72;;;;;;;0.69;78.60;98305.95;1696784;83;21016;-41
2022/01/31 03:41:38;;;;;;;10.35;2.80;;;;;;;0.59;78.30;98304.11;1699646;83;21045;-41
2022/01/31 03:44:04;;;;;;;17.05;3.58;;;;;;;0.62;78.44;98306.62;1711299;84;21080;-41
2022/01/31 03:46:34;;;;;;;12.68;2.98;;;;;;;0.67;78.44;98294.36;1710200;84;21518;-41
2022/01/31 03:48:58;;;;;;;14.93;2.85;;;;;;;0.56;78.50;98287.38;1710147;84;21484;-40
2022/01/31 03:51:24;;;;;;;19.52;3.47;;;;;;;0.47;78.47;98287.67;1711337;84;21470;-39
2022/01/31 03:53:50;;;;;;;18.70;3.05;;;;;;;0.59;78.53;98283.42;1711362;83;21497;-41
2022/01/31 03:56:15;;;;;;;10.95;2.98;;;;;;;0.57;78.25;98278.74;1711278;83;21009;-39
2022/01/31 03:58:41;;;;;;;14.30;3.10;;;;;;;0.59;78.36;98279.54;1711214;83;21005;-40
2022/01/31 04:01:07;;;;;;;17.80;2.92;;;;;;;0.47;78.77;98286.37;1711261;83;20985;-41
2022/01/31 04:03:34;;;;;;;16.30;3.00;;;;;;;0.50;78.21;98281.12;1711207;84;21049;-40
2022/01/31 04:06:00;;;;;;;13.78;3.42;;;;;;;0.48;78.36;98273.86;1711366;84;21017;-40
2022/01/31 04:08:26;;;;;;;13.30;3.08;;;;;;;0.60;78.35;98283.83;1711290;83;21539;-40
2022/01/31 04:10:52;;;;;;;12.15;3.37;;;;;;;0.59;78.29;98279.99;1711255;84;20993;-39
2022/01/31 04:13:18;;;;;;;11.88;3.00;;;;;;;0.58;78.25;98276.53;1711198;84;21004;-40
2022/01/31 04:15:45;;;;;;;14.13;3.30;;;;;;;0.62;78.31;98280.74;1711259;84;21047;-40
2022/01/31 04:18:11;;;;;;;17.42;2.92;;;;;;;0.56;78.05;98275.31;1711490;83;21482;-40
2022/01/31 04:20:38;;;;;;;14.70;3.40;;;;;;;0.60;77.91;98282.54;1711364;84;21470;-40
2022/01/31 04:23:10;;;;;;;15.20;3.27;;;;;;;0.51;78.10;98258.22;1711530;84;21903;-39
2022/01/31 04:25:44;;;;;;;12.90;3.40;;;;;;;0.57;78.17;98265.35;1710638;83;21033;-39
2022/01/31 04:28:18;;;;;;;20.05;4.05;;;;;;;0.60;77.91;98260.55;1711189;84;20969;-41
2022/01/31 04:30:53;;;;;;;15.08;3.25;;;;;;;0.44;78.01;98259.30;1711029;83;20965;-39
2022/01/31 04:33:14;;;;;;;16.77;3.25;;;;;;;0.52;78.26;98259.92;1710124;84;21082;-40
2022/01/31 04:35:39;;;;;;;13.70;2.87;;;;;;;0.51;78.36;98251.75;1711238;83;21001;-40
2022/01/31 04:38:05;;;;;;;16.65;3.22;;;;;;;0.45;78.17;98251.50;1711260;84;21502;-39
2022/01/31 04:40:31;;;;;;;12.37;3.50;;;;;;;0.46;78.36;98252.37;1711160;83;20998;-42
2022/01/31 04:42:57;;;;;;;14.43;2.98;;;;;;;0.36;78.28;98239.72;1687908;84;21067;-39
2022/01/31 04:45:22;;;;;;;14.75;3.45;;;;;;;0.33;78.36;98234.63;1674643;85;20992;-39
2022/01/31 04:47:48;;;;;;;12.05;3.27;;;;;;;0.33;78.59;98234.63;1674671;86;21027;-39
2022/01/31 04:50:14;;;;;;;18.20;3.75;;;;;;;0.37;78.43;98231.05;1674674;85;21011;-38
2022/01/31 04:52:42;;;;;;;13.50;3.27;;;;;;;0.32;78.55;98227.76;1674629;85;21015;-40
2022/01/31 04:55:10;;;;;;;;;;;;;;;0.34;78.52;98223.38;1677072;86;21445;-40
2022/01/31 04:57:36;;;;;;;19.80;4.70;;;;;;;0.28;78.49;98219.70;1672887;85;20152;-39
2022/01/31 05:00:06;;;;;;;18.92;3.52;;;;;;;0.29;78.40;98214.95;1674776;86;21585;-39
2022/01/31 05:02:32;;;;;;;16.48;3.83;;;;;;;0.32;78.11;98217.41;1674025;85;21355;-39
2022/01/31 05:04:58;;;;;;;18.30;3.25;;;;;;;0.27;78.22;98207.66;1674796;86;21465;-40
2022/01/31 05:07:24;;;;;;;18.32;2.92;;;;;;;0.29;78.30;98203.73;1674646;85;21055;-40
2022/01/31 05:09:50;;;;;;;19.87;3.60;;;;;;;0.34;78.29;98203.98;1674701;86;21016;-41
2022/01/31 05:12:16;;;;;;;16.62;3.90;;;;;;;0.31;78.31;98192.47;1674649;85;21034;-41
2022/01/31 05:14:42;;;;;;;19.15;3.60;;;;;;;0.30;78.37;98193.80;1674640;86;21008;-40
2022/01/31 05:17:07;;;;;;;12.03;2.95;;;;;;;0.28;78.68;98196.89;1674664;86;21004;-40
2022/01/31 05:19:33;;;;;;;14.35;3.55;;;;;;;0.30;78.47;98192.51;1674712;86;21056;-40
2022/01/31 05:22:00;;;;;;;12.47;3.60;;;;;;;0.36;78.53;98184.55;1674721;86;21544;-38
2022/01/31 05:24:27;;;;;;;18.43;4.77;;;;;;;0.34;78.58;98182.00;1675105;86;21008;-41
2022/01/31 05:26:53;;;;;;;15.43;3.37;;;;;;;0.30;78.60;98176.99;1674751;85;21017;-40
2022/01/31 05:29:21;;;;;;;18.10;3.85;;;;;;;0.37;78.63;98172.86;1674692;86;21659;-39
2022/01/31 05:31:53;;;;;;;15.63;4.22;;;;;;;0.44;78.61;98170.94;1673411;86;21020;-39
2022/01/31 05:34:16;;;;;;;12.65;3.40;;;;;;;0.32;78.83;98165.70;1673174;85;20972;-39
2022/01/31 05:36:42;;;;;;;16.75;3.72;;;;;;;0.43;78.88;98161.93;1674597;85;21004;-40
2022/01/31 05:39:08;;;;;;;16.20;3.60;;;;;;;0.46;78.79;98165.27;1674761;85;21599;-40
2022/01/31 05:41:34;;;;;;;12.28;3.27;;;;;;;0.49;78.78;98165.17;1674645;86;21044;-42
2022/01/31 05:44:00;;;;;;;21.40;4.97;;;;;;;0.56;78.83;98155.45;1674592;83;21020;-40
2022/01/31 05:46:26;;;;;;;18.37;4.17;;;;;;;0.53;79.01;98153.82;1674621;85;21044;-39
2022/01/31 05:48:53;;;;;;;17.55;4.20;;;;;;;0.56;78.86;98161.48;1674649;86;21459;-40
2022/01/31 05:51:22;;;;;;;16.10;4.37;;;;;;;0.50;78.51;98149.19;1674823;85;20988;-39
2022/01/31 05:53:50;;;;;;;14.55;4.15;;;;;;;0.52;78.68;98154.70;1674622;85;21023;-39
2022/01/31 05:56:17;;;;;;;19.10;4.25;;;;;;;0.57;78.80;98147.64;1674628;86;21071;-40
2022/01/31 05:58:45;;;;;;;17.20;4.12;;;;;;;0.62;78.75;98144.91;1674634;85;21011;-40
2022/01/31 06:01:11;;;;;;;17.00;4.05;;;;;;;0.53;78.33;98145.22;1674870;86;21047;-40
2022/01/31 06:03:38;;;;;;;11.97;3.97;;;;;;;0.50;78.35;98138.39;1674824;86;20995;-39
2022/01/31 06:06:04;;;;;;;18.55;5.17;;;;;;;0.54;78.58;98144.30;1674568;86;21019;-40
2022/01/31 06:08:30;;;;;;;14.98;4.03;;;;;;;0.55;78.66;98140.38;1674666;86;21016;-40
2022/01/31 06:10:56;;;;;;;13.53;3.05;;;;;;;0.63;78.51;98145.75;1674624;85;21023;-41
2022/01/31 06:13:25;;;;;;;19.90;4.33;;;;;;;0.64;78.44;98148.29;1674613;86;21016;-41
2022/01/31 06:15:50;;;;;;;;;;;;;;;0.60;78.34;98146.71;1676863;86;21032;-41
2022/01/31 06:18:15;;;;;;;22.73;4.93;;;;;;;0.57;78.34;98142.92;1674944;84;20120;-42
2022/01/31 06:20:42;;;;;;;16.97;3.70;;;;;;;0.57;78.49;98135.16;1674591;86;20992;-41
2022/01/31 06:23:08;;;;;;;16.75;4.65;;;;;;;0.57;78.27;98144.22;1674749;86;21847;-40
2022/01/31 06:25:34;;;;;;;18.70;4.37;;;;;;;0.60;78.30;98141.96;1674630;85;21016;-41
2022/01/31 06:28:00;;;;;;;16.40;4.28;;;;;;;0.58;78.22;98140.72;1674749;85;21000;-40
2022/01/31 06:30:26;;;;;;;17.90;3.67;;;;;;;0.60;78.46;98141.53;1674605;85;21000;-41
2022/01/31 06:32:55;;;;;;;26.85;6.17;;;;;;;0.46;78.41;98148.91;1674530;85;21020;-41
2022/01/31 06:35:21;;;;;;;24.02;4.47;;;;;;;0.49;78.48;98149.66;1674639;85;21465;-41
2022/01/31 06:37:47;;;;;;;17.55;4.50;;;;;;;0.47;78.50;98146.70;1674680;86;21015;-41
2022/01/31 06:40:13;;;;;;;18.10;5.80;;;;;;;0.50;78.63;98146.61;1674576;86;20980;-41
2022/01/31 06:42:39;;;;;;;24.90;5.87;;;;;;;0.44;78.71;98145.50;1674491;84;21474;-40
2022/01/31 06:45:06;;;;;;;24.05;6.70;;;;;;;0.50;78.69;98148.73;1674555;85;21052;-41
2022/01/31 06:47:32;;;;;;;39.37;9.30;;;;;;;0.50;78.52;98140.98;1674803;85;21007;-40
2022/01/31 06:49:59;;;;;;;77.10;26.70;;;;;;;0.54;78.59;98144.30;1674603;85;21056;-39
2022/01/31 06:52:31;;;;;;;36.17;9.20;;;;;;;0.55;78.67;98144.72;1674747;86;21481;-41
2022/01/31 06:54:55;;;;;;;31.33;11.30;;;;;;;0.64;78.52;98141.83;1657164;86;21854;-40
2022/01/31 06:57:23;;;;;;;21.87;6.72;;;;;;;0.56;78.34;98133.45;1674838;86;21050;-41
2022/01/31 06:59:49;;;;;;;23.15;6.90;;;;;;;0.64;78.26;98126.30;1674445;85;21008;-41
2022/01/31 07:02:15;;;;;;;26.50;6.72;;;;;;;0.57;78.12;98129.53;1674602;86;21077;-40
2022/01/31 07:04:41;;;;;;;25.60;6.70;;;;;;;0.59;78.39;98121.72;1674615;85;21055;-40
2022/01/31 07:07:06;;;;;;;23.35;6.60;;;;;;;0.60;78.19;98109.63;1674609;85;21009;-40
2022/01/31 07:09:35;;;;;;;19.17;5.87;;;;;;;0.69;78.20;98111.89;1674609;86;21537;-39
2022/01/31 07:12:03;;;;;;;28.47;5.95;;;;;;;0.73;78.15;98119.52;1674548;86;21000;-41
2022/01/31 07:14:31;;;;;;;;;;;;;;;0.71;78.00;98117.86;1676889;85;21011;-40
2022/01/31 07:17:06;;;;;;;36.03;10.95;;;;;;;0.59;77.75;98125.60;1674635;85;20116;-40
2022/01/31 07:19:35;;;;;;;27.45;7.28;;;;;;;0.68;77.96;98124.00;1674577;85;21007;-41
2022/01/31 07:22:02;;;;;;;20.23;5.95;;;;;;;0.70;78.05;98118.31;1674409;85;21051;-41
2022/01/31 07:24:51;;;;;;;29.25;7.35;;;;;;;0.75;77.96;98113.83;1674493;85;20984;-40
2022/01/31 07:26:59;;;;;;;29.12;6.47;;;;;;;0.80;77.66;98112.39;1663052;85;20983;-40
2022/01/31 07:29:24;;;;;;;23.02;5.25;;;;;;;0.72;77.70;98102.28;1674533;86;21063;-41
2022/01/31 07:31:51;;;;;;;21.17;4.25;;;;;;;0.68;77.37;98095.53;1674616;85;21053;-41
2022/01/31 07:34:18;;;;;;;17.17;5.47;;;;;;;0.72;77.30;98102.28;1674767;86;20999;-40
2022/01/31 07:36:45;;;;;;;20.15;5.05;;;;;;;0.76;77.44;98103.89;1674570;85;21015;-39
2022/01/31 07:39:12;;;;;;;20.62;5.58;;;;;;;0.68;77.11;98099.41;1674695;86;21007;-40
2022/01/31 07:41:38;;;;;;;20.40;5.35;;;;;;;0.72;77.24;98094.52;1674669;85;21473;-40
2022/01/31 07:44:04;;;;;;;18.60;5.37;;;;;;;0.73;77.04;98100.11;1674764;83;21080;-40
2022/01/31 07:46:30;;;;;;;23.10;6.60;;;;;;;0.74;76.97;98096.61;1674494;86;21055;-39
2022/01/31 07:48:56;;;;;;;24.23;8.28;;;;;;;0.81;77.06;98096.41;1674591;86;20984;-41
2022/01/31 07:51:22;;;;;;;26.12;5.45;;;;;;;0.88;77.09;98094.84;1674539;85;20984;-40
2022/01/31 07:53:48;;;;;;;15.78;4.85;;;;;;;0.86;76.91;98094.05;1674562;86;21019;-40
2022/01/31 07:56:16;;;;;;;20.68;5.33;;;;;;;0.90;76.53;98090.91;1674553;86;21529;-41
2022/01/31 07:58:42;;;;;;;19.65;5.37;;;;;;;0.88;76.31;98088.37;1674812;86;21004;-41
2022/01/31 08:01:09;;;;;;;23.38;5.28;;;;;;;0.97;76.89;98083.78;1674596;85;21813;-39
2022/01/31 08:03:36;;;;;;;14.37;4.23;;;;;;;0.92;76.31;98087.35;1674840;85;21051;-40
2022/01/31 08:06:03;;;;;;;20.35;5.20;;;;;;;0.95;75.87;98085.12;1674687;85;21895;-41
2022/01/31 08:08:31;;;;;;;16.23;4.30;;;;;;;1.02;76.16;98082.71;1674705;85;21521;-40
2022/01/31 08:10:58;;;;;;;12.93;3.40;;;;;;;1.00;76.35;98084.94;1674751;85;21023;-41
2022/01/31 08:13:28;;;;;;;16.32;5.28;;;;;;;1.00;75.81;98075.45;1674667;86;21012;-40
2022/01/31 08:16:09;;;;;;;20.97;4.60;;;;;;;1.06;76.15;98066.16;1673115;85;20999;-40
2022/01/31 08:18:30;;;;;;;25.12;5.25;;;;;;;1.07;75.75;98071.71;1673553;86;20980;-41
2022/01/31 08:20:56;;;;;;;14.58;3.87;;;;;;;1.07;75.76;98068.28;1674705;85;21023;-40
2022/01/31 08:23:22;;;;;;;18.12;4.15;;;;;;;1.13;75.67;98063.73;1674717;85;21008;-41
2022/01/31 08:25:49;;;;;;;20.15;4.30;;;;;;;1.11;75.62;98056.48;1674781;85;21555;-41
2022/01/31 08:28:20;;;;;;;15.78;3.98;;;;;;;1.13;75.72;98063.73;1674922;86;21004;-41
2022/01/31 08:30:58;;;;;;;17.60;4.08;;;;;;;1.04;75.31;98047.70;1674714;85;20992;-40
2022/01/31 08:33:36;;;;;;;14.13;4.33;;;;;;;1.13;75.56;98040.44;1673851;85;20972;-39
2022/01/31 08:36:06;;;;;;;14.55;4.05;;;;;;;1.13;75.45;98042.19;1674240;86;20976;-40
2022/01/31 08:38:35;;;;;;;16.82;4.10;;;;;;;1.12;75.06;98040.03;1674661;86;21011;-40
2022/01/31 08:41:01;;;;;;;22.50;5.12;;;;;;;1.18;75.38;98033.77;1674700;85;21172;-41
2022/01/31 08:43:28;;;;;;;20.35;4.37;;;;;;;1.29;75.45;98027.77;1674602;83;21044;-40
2022/01/31 08:45:56;;;;;;;19.27;4.92;;;;;;;1.36;75.28;98024.47;1674962;86;21528;-40
2022/01/31 08:48:24;;;;;;;20.65;4.67;;;;;;;1.33;74.83;98023.31;1674494;85;21079;-40
2022/01/31 08:50:51;;;;;;;23.55;6.12;;;;;;;1.42;75.12;98037.20;1672845;86;21063;-41
2022/01/31 08:53:17;;;;;;;18.40;5.10;;;;;;;1.41;74.69;98028.19;1675009;85;20988;-40
2022/01/31 08:55:48;;;;;;;22.00;6.15;;;;;;;1.45;74.66;98030.59;1674643;85;21059;-40
2022/01/31 08:58:14;;;;;;;20.05;7.05;;;;;;;1.48;75.16;98025.76;1674590;85;20987;-40
2022/01/31 09:00:40;;;;;;;19.62;6.00;;;;;;;1.54;74.86;98029.39;1674638;85;21055;-41
2022/01/31 09:05:40;;;;;;;21.50;5.28;;;;;;;1.61;74.58;98024.36;1674800;86;20972;-41
2022/01/31 09:08:05;;;;;;;;;;;;;;;1.72;74.85;98027.83;1677220;86;21051;-41
2022/01/31 09:10:32;;;;;;;23.75;5.00;;;;;;;1.54;73.89;98025.05;1674751;86;20456;-40
2022/01/31 09:12:58;;;;;;;22.43;5.07;;;;;;;1.72;74.56;98026.53;1674917;85;21016;-41
2022/01/31 09:15:24;;;;;;;18.85;4.80;;;;;;;1.76;74.96;98019.02;1674590;85;21566;-41
2022/01/31 09:17:50;;;;;;;22.35;5.58;;;;;;;1.77;74.46;98014.70;1674689;85;20995;-41
2022/01/31 09:20:18;;;;;;;22.90;5.65;;;;;;;1.69;74.01;98013.26;1674664;86;21023;-39
2022/01/31 09:22:44;;;;;;;18.82;4.83;;;;;;;1.69;74.46;98013.26;1674860;86;21019;-40
2022/01/31 09:25:12;;;;;;;23.77;5.05;;;;;;;1.72;73.89;98007.09;1674298;85;21024;-40
2022/01/31 09:27:38;;;;;;;17.67;4.95;;;;;;;1.73;74.07;98009.63;1674673;86;21020;-41
2022/01/31 09:30:10;;;;;;;24.63;5.80;;;;;;;1.82;74.38;98011.02;1674596;85;21019;-41
2022/01/31 09:32:36;;;;;;;28.77;6.03;;;;;;;1.83;74.27;98007.96;1674662;86;21015;-41
2022/01/31 09:35:03;;;;;;;27.10;5.57;;;;;;;1.84;74.10;97998.00;1674942;86;21513;-40
2022/01/31 09:37:29;;;;;;;22.50;6.42;;;;;;;1.82;73.63;97994.59;1674807;85;21023;-40
2022/01/31 09:40:02;;;;;;;22.07;6.28;;;;;;;1.85;73.91;97997.08;1674617;85;21059;-41
2022/01/31 09:42:32;;;;;;;23.27;5.60;;;;;;;1.84;74.11;97993.65;1667681;85;21618;-41
2022/01/31 09:50:13;;;;;;;22.85;5.78;;;;;;;1.86;73.83;97969.80;1670610;86;21073;-39
2022/01/31 09:52:39;;;;;;;21.27;6.05;;;;;;;1.81;73.42;97967.01;1672109;85;21074;-39
2022/01/31 09:55:07;;;;;;;27.48;6.62;;;;;;;1.90;73.91;97960.14;1672032;85;21504;-39
2022/01/31 09:57:32;;;;;;;28.75;6.65;;;;;;;1.97;74.22;97949.08;1671922;85;21066;-40
2022/01/31 09:59:58;;;;;;;29.20;6.08;;;;;;;2.02;73.76;97950.99;1671974;85;21022;-40
2022/01/31 10:02:24;;;;;;;22.07;5.75;;;;;;;2.04;73.56;97948.75;1671949;86;21023;-40
2022/01/31 10:04:50;;;;;;;22.13;5.78;;;;;;;1.98;73.03;97941.20;1671963;85;21015;-40
2022/01/31 10:07:17;;;;;;;27.65;6.40;;;;;;;2.07;73.44;97938.25;1671950;85;21031;-40
2022/01/31 10:09:47;;;;;;;;;;;;;;;2.10;73.23;97937.27;1674481;85;21098;-40
2022/01/31 10:17:49;;;;;;;19.30;5.00;;;;;;;2.12;72.55;97928.96;1672020;86;20999;-41
2022/01/31 10:20:25;;;;;;;36.30;14.87;;;;;;;2.04;72.41;97924.11;1652141;86;21058;-40
2022/01/31 10:22:51;;;;;;;28.45;8.88;;;;;;;2.14;73.18;97928.44;1675286;85;21102;-41
2022/01/31 10:25:21;;;;;;;20.37;6.55;;;;;;;2.18;72.71;97924.80;1675196;85;21034;-42
2022/01/31 10:27:52;;;;;;;28.07;7.30;;;;;;;2.11;72.11;97925.53;1668330;84;21059;-41
2022/01/31 10:30:24;;;;;;;38.85;14.53;;;;;;;2.14;72.51;97915.47;1667781;85;21203;-40
2022/01/31 10:32:53;;;;;;;43.35;15.83;;;;;;;2.06;72.04;97917.11;1667354;84;21122;-40
2022/01/31 10:35:25;;;;;;;29.95;11.30;;;;;;;2.13;72.19;97924.18;1668867;86;21039;-40
2022/01/31 10:38:03;;;;;;;31.45;9.58;;;;;;;2.19;72.81;97917.88;1667866;86;21732;-40
2022/01/31 10:43:36;;;;;;;27.37;8.25;;;;;;;2.20;72.21;97912.63;1667553;86;21659;-40
2022/01/31 10:45:56;;;;;;;46.18;14.65;;;;;;;2.22;72.28;97909.52;1635953;86;21522;-40
2022/01/31 10:54:10;;;;;;;30.15;8.40;;;;;;;2.21;72.36;97909.58;1612101;89;20167;-40
2022/01/31 10:56:53;;;;;;;29.57;9.73;;;;;;;1.99;72.11;97910.96;1611084;88;21575;-41
2022/01/31 10:59:41;;;;;;;26.65;7.90;;;;;;;2.06;72.47;97907.20;1611225;88;21670;-41
2022/01/31 11:02:25;;;;;;;25.48;6.20;;;;;;;2.05;72.69;97901.14;1636907;87;21011;-41
2022/01/31 11:04:52;;;;;;;23.05;7.53;;;;;;;2.04;72.28;97904.66;1639951;87;21067;-41
2022/01/31 11:07:21;;;;;;;22.90;7.28;;;;;;;1.94;72.20;97905.95;1657096;86;21006;-40
2022/01/31 11:09:49;;;;;;;29.25;6.90;;;;;;;1.95;72.33;97897.71;1680252;85;21011;-41
2022/01/31 11:12:16;;;;;;;23.05;6.83;;;;;;;1.89;72.61;97898.39;1675196;86;21053;-42
2022/01/31 11:14:46;;;;;;;19.77;6.47;;;;;;;1.90;72.82;97891.45;1675195;85;21063;-40
2022/01/31 11:17:15;;;;;;;20.40;5.62;;;;;;;1.99;72.65;97894.94;1680373;85;21025;-39
2022/01/31 11:19:45;;;;;;;19.75;5.25;;;;;;;1.98;72.51;97888.52;1675191;86;21002;-39
2022/01/31 11:22:14;;;;;;;17.35;4.90;;;;;;;2.01;71.86;97883.21;1675112;85;21002;-39
2022/01/31 11:24:44;;;;;;;25.00;5.60;;;;;;;2.02;71.68;97883.58;1661248;85;20986;-40
2022/01/31 11:27:13;;;;;;;20.70;5.25;;;;;;;2.00;71.76;97882.81;1641557;86;21002;-40
2022/01/31 11:29:49;;;;;;;29.35;5.45;;;;;;;1.88;71.45;97882.44;1647460;87;21540;-40
2022/01/31 11:32:15;;;;;;;17.35;5.80;;;;;;;2.09;72.26;97884.57;1647427;87;20983;-39
2022/01/31 11:34:44;;;;;;;21.00;5.00;;;;;;;2.21;71.98;97884.94;1647919;87;21054;-40
2022/01/31 11:37:14;;;;;;;28.23;5.80;;;;;;;2.25;71.23;97883.42;1646575;87;21042;-38
2022/01/31 11:39:46;;;;;;;28.95;7.75;;;;;;;2.22;70.87;97878.82;1647177;87;20950;-39
2022/01/31 11:42:13;;;;;;;28.40;7.85;;;;;;;2.35;70.79;97879.98;1647223;87;21010;-40
2022/01/31 11:44:57;;;;;;;25.37;8.23;;;;;;;2.48;70.70;97876.38;1657715;84;21094;-40
2022/01/31 11:47:25;;;;;;;32.50;9.18;;;;;;;2.58;70.53;97871.60;1669311;86;21006;-41
2022/01/31 11:49:59;;;;;;;22.02;8.23;;;;;;;2.47;69.29;97879.44;1669393;86;21007;-39
2022/01/31 11:52:27;;;;;;;20.95;6.80;;;;;;;2.53;68.44;97882.20;1669376;86;21050;-41
2022/01/31 11:55:01;;;;;;;37.80;10.50;;;;;;;2.44;67.73;97874.84;1669109;86;20991;-40
2022/01/31 11:57:31;;;;;;;24.75;7.15;;;;;;;2.47;69.27;97871.66;1668014;86;21043;-40
2022/01/31 12:00:08;;;;;;;23.83;5.85;;;;;;;2.42;69.14;97873.61;1669114;86;21058;-40